Time;durP1;ratioP1;P1;durP2;ratioP2;P2;SDS_P1;SDS_P2;PMS_P1;PMS_P2;Temp;Humidity;BMP_temperature;BMP_pressure;BME280_temperature;BME280_humidity;BME280_pressure;Samples;Min_cycle;Max_cycle;Signal;HPM_P1;HPM_P2
2021/06/24 00:01:24;;;;;;;1.80;0.80;;;20.60;59.70;;;;;;5013424;28;20030;-48
2021/06/24 00:03:50;;;;;;;2.08;0.88;;;20.30;59.60;;;;;;5013315;28;20033;-49
2021/06/24 00:06:16;;;;;;;1.42;0.85;;;20.70;59.80;;;;;;5013518;28;20030;-47
2021/06/24 00:08:41;;;;;;;1.00;0.70;;;20.60;59.80;;;;;;5013483;28;20021;-49
2021/06/24 00:11:09;;;;;;;2.05;0.80;;;20.30;59.60;;;;;;5012277;28;20087;-47
2021/06/24 00:13:36;;;;;;;2.30;0.70;;;20.40;59.70;;;;;;5013419;28;20029;-48
2021/06/24 00:16:02;;;;;;;1.02;0.70;;;20.60;59.80;;;;;;5013066;28;20014;-47
2021/06/24 00:18:28;;;;;;;1.08;0.65;;;20.60;59.80;;;;;;5013035;28;20030;-48
2021/06/24 00:20:53;;;;;;;1.25;0.77;;;20.40;59.70;;;;;;5012957;28;20424;-48
2021/06/24 00:23:19;;;;;;;2.10;0.93;;;20.90;60.00;;;;;;5013038;28;20065;-47
2021/06/24 00:25:45;;;;;;;2.40;0.82;;;20.30;59.60;;;;;;5013087;28;20025;-49
2021/06/24 00:28:15;;;;;;;0.85;0.52;;;20.60;59.80;;;;;;5013298;28;20310;-47
2021/06/24 00:30:41;;;;;;;1.67;0.82;;;20.90;60.00;;;;;;5013191;28;20022;-48
2021/06/24 00:33:07;;;;;;;1.10;0.65;;;20.50;59.80;;;;;;5011653;28;20037;-49
2021/06/24 00:35:32;;;;;;;1.15;0.80;;;20.60;59.90;;;;;;5013113;28;20022;-47
2021/06/24 00:37:58;;;;;;;1.70;0.90;;;20.50;59.80;;;;;;5012807;28;20030;-51
2021/06/24 00:40:24;;;;;;;0.70;0.68;;;20.50;59.80;;;;;;5013083;28;20037;-47
2021/06/24 00:42:50;;;;;;;0.60;0.55;;;20.50;59.80;;;;;;5013098;28;20052;-47
2021/06/24 00:45:16;;;;;;;1.60;0.55;;;20.40;59.80;;;;;;5012686;28;20045;-48
2021/06/24 00:47:42;;;;;;;0.90;0.60;;;20.50;59.90;;;;;;5012983;28;20026;-48
2021/06/24 00:50:11;;;;;;;0.82;0.60;;;20.50;59.90;;;;;;5013008;28;20079;-48
2021/06/24 00:52:36;;;;;;;1.48;0.80;;;20.50;59.90;;;;;;5012966;28;20389;-46
2021/06/24 00:55:03;;;;;;;3.80;0.57;;;20.50;59.90;;;;;;5012888;28;20014;-48
2021/06/24 00:57:30;;;;;;;0.65;0.50;;;20.50;59.90;;;;;;5012645;28;20026;-48
2021/06/24 00:59:56;;;;;;;1.45;0.88;;;21.00;60.20;;;;;;5016599;28;20057;-47
2021/06/24 01:02:22;;;;;;;0.60;0.60;;;20.40;59.90;;;;;;5016676;28;20080;-50
2021/06/24 01:04:47;;;;;;;1.23;0.55;;;20.40;59.90;;;;;;5016686;28;20037;-47
2021/06/24 01:07:16;;;;;;;0.68;0.60;;;20.30;59.90;;;;;;5016611;28;20026;-47
2021/06/24 01:09:42;;;;;;;0.85;0.50;;;20.40;59.90;;;;;;5016518;28;20022;-47
2021/06/24 01:12:09;;;;;;;1.23;0.80;;;20.50;60.00;;;;;;5016758;28;20024;-47
2021/06/24 01:14:37;;;;;;;0.70;0.70;;;20.50;60.00;;;;;;5016756;28;20026;-47
2021/06/24 01:17:04;;;;;;;1.17;0.70;;;20.30;59.90;;;;;;5016381;28;20026;-47
2021/06/24 01:19:30;;;;;;;0.50;0.50;;;20.50;60.00;;;;;;5016367;28;20044;-48
2021/06/24 01:21:56;;;;;;;0.55;0.55;;;20.50;60.00;;;;;;5016250;28;20018;-47
2021/06/24 01:24:22;;;;;;;1.40;0.60;;;20.30;59.90;;;;;;5014997;28;20026;-47
2021/06/24 01:26:48;;;;;;;0.98;0.60;;;20.50;60.00;;;;;;5016472;28;20109;-48
2021/06/24 01:29:14;;;;;;;1.42;0.80;;;20.80;60.20;;;;;;5016083;28;20112;-47
2021/06/24 01:31:40;;;;;;;1.10;0.80;;;20.70;60.10;;;;;;5016391;28;20025;-48
2021/06/24 01:34:11;;;;;;;1.27;0.80;;;20.70;60.20;;;;;;5016339;28;20033;-47
2021/06/24 01:36:38;;;;;;;1.10;0.60;;;20.50;60.00;;;;;;5014776;28;20500;-47
2021/06/24 01:39:08;;;;;;;1.25;0.70;;;20.90;60.40;;;;;;5016245;28;20042;-48
2021/06/24 01:41:33;;;;;;;1.17;0.77;;;20.40;60.00;;;;;;5016279;28;20022;-47
2021/06/24 01:43:59;;;;;;;0.60;0.50;;;20.40;60.10;;;;;;5015666;28;20172;-47
2021/06/24 01:46:25;;;;;;;0.90;0.60;;;20.80;60.30;;;;;;5014595;28;20029;-48
2021/06/24 01:48:51;;;;;;;1.10;0.60;;;20.40;60.10;;;;;;5014862;28;20427;-48
2021/06/24 01:51:16;;;;;;;0.80;0.70;;;20.40;80.90;;;;;;5015839;28;20103;-48
2021/06/24 01:53:42;;;;;;;0.80;0.57;;;20.50;80.90;;;;;;5015747;28;20069;-48
2021/06/24 01:56:08;;;;;;;0.90;0.63;;;20.60;60.30;;;;;;5015956;28;20048;-47
2021/06/24 01:58:34;;;;;;;0.90;0.63;;;20.40;60.20;;;;;;5014315;28;20121;-48
2021/06/24 02:01:00;;;;;;;0.55;0.50;;;20.40;60.20;;;;;;5015590;28;20020;-47
2021/06/24 02:03:27;;;;;;;2.13;0.90;;;20.10;60.00;;;;;;5015578;28;20473;-50
2021/06/24 02:05:55;;;;;;;0.73;0.52;;;20.50;60.90;;;;;;5014666;28;20030;-47
2021/06/24 02:08:25;;;;;;;1.38;0.50;;;20.70;60.40;;;;;;5015769;28;20033;-49
2021/06/24 02:10:53;;;;;;;1.50;0.68;;;20.70;60.40;;;;;;5014336;28;20026;-47
2021/06/24 02:13:18;;;;;;;0.60;0.45;;;20.40;60.20;;;;;;5015734;28;20026;-47
2021/06/24 02:15:44;;;;;;;1.13;0.50;;;20.40;60.20;;;;;;5015271;28;20453;-48
2021/06/24 02:18:10;;;;;;;0.68;0.50;;;20.40;60.20;;;;;;5013990;28;20040;-47
2021/06/24 02:20:36;;;;;;;0.70;0.50;;;20.40;60.30;;;;;;5015499;28;20357;-47
2021/06/24 02:23:03;;;;;;;1.33;0.60;;;20.40;60.30;;;;;;5015084;28;20032;-49
2021/06/24 02:25:28;;;;;;;0.80;0.75;;;20.40;60.30;;;;;;5015444;28;20022;-48
2021/06/24 02:27:55;;;;;;;1.08;0.50;;;20.10;60.10;;;;;;5015583;28;20108;-48
2021/06/24 02:30:21;;;;;;;1.35;0.90;;;20.50;60.40;;;;;;5015121;28;20030;-48
2021/06/24 02:32:48;;;;;;;0.90;0.80;;;20.40;60.30;;;;;;5015323;28;20130;-49
2021/06/24 02:35:15;;;;;;;0.70;0.60;;;20.40;60.30;;;;;;5015306;28;20079;-49
2021/06/24 02:37:42;;;;;;;0.70;0.50;;;20.40;60.30;;;;;;5013593;28;20038;-48
2021/06/24 02:40:09;;;;;;;0.88;0.73;;;20.40;60.30;;;;;;5014875;28;20473;-47
2021/06/24 02:42:35;;;;;;;0.85;0.55;;;20.40;60.40;;;;;;5014781;28;20484;-47
2021/06/24 02:45:01;;;;;;;0.60;0.60;;;20.10;60.20;;;;;;5014721;28;20068;-48
2021/06/24 02:47:27;;;;;;;1.48;0.75;;;20.70;60.50;;;;;;5014829;28;20033;-48
2021/06/24 02:49:52;;;;;;;1.15;0.85;;;20.10;60.20;;;;;;5014944;28;20121;-46
2021/06/24 02:52:18;;;;;;;0.60;0.60;;;20.10;60.20;;;;;;5015140;28;20022;-48
2021/06/24 02:54:44;;;;;;;0.60;0.60;;;20.40;60.40;;;;;;5014801;28;20113;-48
2021/06/24 02:57:09;;;;;;;0.50;0.50;;;20.30;60.40;;;;;;5014803;28;20025;-49
2021/06/24 02:59:35;;;;;;;0.57;0.55;;;20.30;60.40;;;;;;5014454;28;20062;-48
2021/06/24 03:02:01;;;;;;;0.70;0.57;;;20.40;60.40;;;;;;5014819;28;20454;-48
2021/06/24 03:04:26;;;;;;;0.60;0.50;;;20.30;60.40;;;;;;5014433;28;20113;-47
2021/06/24 03:06:53;;;;;;;1.08;0.60;;;20.00;60.20;;;;;;5014348;28;20101;-47
2021/06/24 03:09:20;;;;;;;1.58;0.68;;;20.00;60.20;;;;;;5014408;28;20026;-48
2021/06/24 03:11:47;;;;;;;0.82;0.60;;;20.10;60.30;;;;;;5014523;28;20385;-47
2021/06/24 03:14:13;;;;;;;0.40;0.40;;;20.20;60.30;;;;;;5014528;28;20052;-48
2021/06/24 03:16:39;;;;;;;0.82;0.45;;;20.60;60.60;;;;;;5014192;28;20470;-47
2021/06/24 03:19:06;;;;;;;0.98;0.52;;;20.40;60.50;;;;;;5014344;28;20037;-48
2021/06/24 03:21:32;;;;;;;1.20;0.40;;;20.30;60.40;;;;;;5013801;28;20458;-48
2021/06/24 03:23:57;;;;;;;0.88;0.70;;;20.30;60.50;;;;;;5014083;28;20026;-47
2021/06/24 03:26:23;;;;;;;0.63;0.50;;;20.60;60.70;;;;;;5014324;28;20018;-48
2021/06/24 03:28:49;;;;;;;0.77;0.70;;;20.20;60.40;;;;;;5014305;28;20477;-47
2021/06/24 03:31:14;;;;;;;0.88;0.80;;;20.20;60.50;;;;;;5014214;28;20427;-47
2021/06/24 03:33:40;;;;;;;0.40;0.40;;;20.20;60.40;;;;;;5013923;28;20109;-48
2021/06/24 03:36:06;;;;;;;0.82;0.60;;;20.30;60.50;;;;;;5013822;28;20136;-48
2021/06/24 03:38:32;;;;;;;1.10;0.85;;;20.30;60.50;;;;;;5013736;28;20030;-47
2021/06/24 03:40:58;;;;;;;0.98;0.43;;;20.30;60.60;;;;;;5013710;28;20384;-48
2021/06/24 03:43:23;;;;;;;0.63;0.47;;;20.20;60.50;;;;;;5013966;28;20064;-47
2021/06/24 03:45:49;;;;;;;0.50;0.50;;;19.90;60.40;;;;;;5013629;28;20038;-47
2021/06/24 03:48:15;;;;;;;1.13;0.70;;;20.20;81.30;;;;;;5013643;28;20057;-47
2021/06/24 03:50:41;;;;;;;0.98;0.70;;;20.20;60.50;;;;;;5013871;28;20018;-48
2021/06/24 03:53:06;;;;;;;1.88;0.77;;;20.50;60.70;;;;;;5013864;28;20021;-48
2021/06/24 03:55:51;;;;;;;2.40;0.70;;;20.30;60.60;;;;;;5013694;28;20495;-48
2021/06/24 03:58:17;;;;;;;0.75;0.60;;;19.90;60.40;;;;;;5013430;28;20091;-47
2021/06/24 04:00:45;;;;;;;0.68;0.60;;;20.20;60.50;;;;;;5013727;28;20056;-47
2021/06/24 04:03:11;;;;;;;0.98;0.60;;;20.30;60.60;;;;;;5013405;28;20033;-48
2021/06/24 04:05:37;;;;;;;1.15;0.80;;;20.20;60.60;;;;;;5012034;28;20014;-48
2021/06/24 04:08:05;;;;;;;0.63;0.63;;;20.10;60.50;;;;;;5013632;28;20034;-49
2021/06/24 04:10:32;;;;;;;0.65;0.65;;;20.20;60.60;;;;;;5013215;28;20014;-48
2021/06/24 04:12:58;;;;;;;1.10;0.63;;;20.20;60.50;;;;;;5013450;28;20026;-49
2021/06/24 04:15:25;;;;;;;0.80;0.50;;;20.20;60.60;;;;;;5013405;28;20033;-49
2021/06/24 04:17:51;;;;;;;0.63;0.40;;;20.20;60.60;;;;;;5013337;28;20033;-47
2021/06/24 04:20:18;;;;;;;0.70;0.60;;;20.20;60.60;;;;;;5013357;28;20022;-47
2021/06/24 04:22:43;;;;;;;1.10;0.70;;;20.00;60.40;;;;;;5013107;28;20022;-49
2021/06/24 04:25:10;;;;;;;0.47;0.47;;;20.20;60.60;;;;;;5012988;28;20096;-47
2021/06/24 04:27:36;;;;;;;0.70;0.70;;;20.20;60.60;;;;;;5013289;28;20030;-48
2021/06/24 04:30:04;;;;;;;0.88;0.45;;;20.00;60.50;;;;;;5013276;28;20037;-49
2021/06/24 04:32:30;;;;;;;0.80;0.50;;;20.20;60.60;;;;;;5012525;28;20068;-48
2021/06/24 04:34:56;;;;;;;1.13;0.60;;;20.20;60.60;;;;;;5012931;28;20476;-47
2021/06/24 04:37:21;;;;;;;0.60;0.47;;;19.90;60.40;;;;;;5012749;28;20075;-48
2021/06/24 04:39:47;;;;;;;1.13;0.70;;;20.10;60.50;;;;;;5012833;28;20033;-47
2021/06/24 04:42:12;;;;;;;0.90;0.60;;;20.20;60.60;;;;;;5013187;28;20170;-47
2021/06/24 04:44:39;;;;;;;1.00;0.52;;;20.20;60.60;;;;;;5012551;28;20061;-48
2021/06/24 04:47:05;;;;;;;0.82;0.60;;;20.50;60.80;;;;;;5012832;28;20495;-48
2021/06/24 04:49:30;;;;;;;0.75;0.60;;;20.20;81.60;;;;;;5013000;28;20137;-48
2021/06/24 04:51:56;;;;;;;0.90;0.40;;;20.10;60.70;;;;;;5012639;28;20026;-48
2021/06/24 04:54:22;;;;;;;0.40;0.40;;;20.10;61.30;;;;;;5011319;28;20034;-47
2021/06/24 04:56:47;;;;;;;0.88;0.50;;;19.90;60.50;;;;;;5012911;28;20116;-48
2021/06/24 04:59:13;;;;;;;0.68;0.52;;;19.90;60.60;;;;;;5012884;28;20109;-47
2021/06/24 05:01:39;;;;;;;1.10;0.70;;;20.10;60.70;;;;;;5012900;28;20072;-48
2021/06/24 05:04:04;;;;;;;1.05;0.90;;;20.20;60.70;;;;;;5012841;28;20033;-49
2021/06/24 05:06:30;;;;;;;1.67;0.82;;;20.30;60.80;;;;;;5012848;28;20019;-47
2021/06/24 05:08:56;;;;;;;1.00;0.80;;;20.30;60.70;;;;;;5012747;28;20109;-48
2021/06/24 05:11:21;;;;;;;1.42;0.68;;;20.20;60.70;;;;;;5012662;28;20022;-48
2021/06/24 05:13:47;;;;;;;1.60;0.95;;;19.90;60.60;;;;;;5011398;28;20033;-46
2021/06/24 05:16:13;;;;;;;1.20;0.60;;;20.10;60.50;;;;;;5012544;28;20037;-47
2021/06/24 05:18:40;;;;;;;2.90;0.63;;;20.10;60.60;;;;;;5012689;28;20034;-48
2021/06/24 05:21:06;;;;;;;1.48;0.70;;;19.90;60.50;;;;;;5012544;28;20165;-47
2021/06/24 05:23:32;;;;;;;1.45;0.68;;;20.10;60.60;;;;;;5012477;28;20022;-47
2021/06/24 05:25:57;;;;;;;3.35;0.70;;;20.30;60.80;;;;;;5012511;28;20058;-48
2021/06/24 05:28:23;;;;;;;1.08;0.60;;;20.20;60.70;;;;;;5012660;28;20014;-48
2021/06/24 05:30:49;;;;;;;1.00;0.70;;;20.00;60.60;;;;;;5012403;28;20033;-48
2021/06/24 05:33:15;;;;;;;2.35;0.70;;;20.20;60.90;;;;;;5012565;28;20025;-47
2021/06/24 05:35:42;;;;;;;2.22;0.93;;;19.90;60.70;;;;;;5012185;28;20053;-48
2021/06/24 05:38:11;;;;;;;1.33;0.60;;;20.00;60.80;;;;;;5012336;28;20087;-48
2021/06/24 05:40:40;;;;;;;1.67;0.70;;;20.10;60.80;;;;;;5012363;28;20087;-48
2021/06/24 05:43:06;;;;;;;1.95;0.77;;;20.20;60.90;;;;;;5012395;28;20026;-49
2021/06/24 05:45:31;;;;;;;2.20;0.77;;;20.00;60.80;;;;;;5014669;28;20096;-47
2021/06/24 05:47:58;;;;;;;1.33;0.60;;;20.00;60.80;;;;;;5016092;28;20061;-48
2021/06/24 05:50:24;;;;;;;0.95;0.70;;;20.00;81.30;;;;;;5015781;28;20481;-48
2021/06/24 05:52:50;;;;;;;2.22;0.88;;;19.90;60.40;;;;;;5016044;28;20044;-48
2021/06/24 05:55:17;;;;;;;0.73;0.68;;;20.20;60.70;;;;;;5016265;28;20042;-48
2021/06/24 05:57:43;;;;;;;4.28;1.00;;;20.20;61.60;;;;;;5014261;28;20034;-48
2021/06/24 06:00:09;;;;;;;1.50;0.70;;;20.10;62.20;;;;;;5015859;28;20105;-47
2021/06/24 06:02:35;;;;;;;2.15;0.95;;;20.20;61.70;;;;;;5015572;28;20481;-47
2021/06/24 06:05:01;;;;;;;4.70;1.00;;;20.20;61.50;;;;;;5015812;28;20104;-48
2021/06/24 06:07:26;;;;;;;3.03;0.93;;;20.20;61.40;;;;;;5015724;28;20535;-48
2021/06/24 06:09:52;;;;;;;1.92;0.90;;;20.00;61.30;;;;;;5015710;28;20022;-47
2021/06/24 06:12:17;;;;;;;2.05;0.75;;;20.20;61.40;;;;;;5015622;28;20018;-48
2021/06/24 06:14:43;;;;;;;1.80;0.80;;;20.00;61.10;;;;;;5015402;28;20552;-47
2021/06/24 06:17:08;;;;;;;1.25;0.88;;;20.70;61.30;;;;;;5015281;28;20076;-49
2021/06/24 06:19:34;;;;;;;4.20;1.27;;;20.00;61.30;;;;;;5015214;28;20113;-48
2021/06/24 06:22:00;;;;;;;0.93;0.82;;;20.20;61.60;;;;;;5015252;28;20045;-50
2021/06/24 06:24:25;;;;;;;2.05;1.17;;;20.00;61.40;;;;;;5015401;28;20025;-48
2021/06/24 06:26:51;;;;;;;2.13;1.10;;;20.30;61.30;;;;;;5014946;28;20018;-47
2021/06/24 06:29:17;;;;;;;1.63;0.90;;;20.00;61.20;;;;;;5015263;28;20030;-47
2021/06/24 06:31:42;;;;;;;3.70;0.90;;;20.30;61.40;;;;;;5014926;28;20322;-47
2021/06/24 06:34:09;;;;;;;1.30;0.70;;;20.40;61.40;;;;;;5014837;28;20030;-47
2021/06/24 06:36:35;;;;;;;2.13;0.90;;;20.30;61.00;;;;;;5014693;28;20438;-47
2021/06/24 06:39:00;;;;;;;1.38;0.70;;;20.10;61.00;;;;;;5015128;28;20034;-49
2021/06/24 06:41:26;;;;;;;2.47;0.90;;;20.30;82.10;;;;;;5014859;28;20036;-49
2021/06/24 06:43:52;;;;;;;7.15;1.33;;;20.30;61.40;;;;;;5014833;28;20046;-47
2021/06/24 06:46:18;;;;;;;3.33;0.80;;;20.10;61.30;;;;;;5015099;28;20481;-47
2021/06/24 06:48:43;;;;;;;3.65;0.70;;;20.10;61.00;;;;;;5014969;28;20092;-46
2021/06/24 06:51:09;;;;;;;2.67;0.88;;;20.30;61.20;;;;;;5014949;28;20097;-47
2021/06/24 06:53:35;;;;;;;2.92;1.13;;;20.50;81.90;;;;;;5014852;28;20029;-46
2021/06/24 06:56:01;;;;;;;1.42;0.50;;;20.10;61.00;;;;;;5014152;28;20022;-47
2021/06/24 06:58:26;;;;;;;2.63;0.95;;;20.10;60.90;;;;;;5014099;28;20046;-47
2021/06/24 07:00:52;;;;;;;2.53;1.08;;;20.00;60.90;;;;;;5014590;28;20018;-47
2021/06/24 07:03:18;;;;;;;3.17;0.95;;;20.60;61.20;;;;;;5014371;28;20057;-47
2021/06/24 07:05:43;;;;;;;3.78;0.90;;;20.60;61.30;;;;;;5014474;28;20235;-49
2021/06/24 07:08:09;;;;;;;2.05;0.75;;;20.30;61.10;;;;;;5014271;28;20030;-46
2021/06/24 07:10:35;;;;;;;1.63;0.63;;;20.30;61.10;;;;;;5014337;28;20026;-48
2021/06/24 07:13:00;;;;;;;1.42;0.75;;;20.10;61.20;;;;;;5014255;28;20369;-47
2021/06/24 07:15:26;;;;;;;2.85;1.00;;;20.30;61.00;;;;;;5014236;28;20041;-48
2021/06/24 07:17:52;;;;;;;1.05;0.63;;;20.30;60.90;;;;;;5012847;28;20030;-47
2021/06/24 07:20:18;;;;;;;2.80;1.02;;;20.30;60.90;;;;;;5014021;28;20484;-48
2021/06/24 07:22:43;;;;;;;1.83;0.80;;;20.30;60.80;;;;;;5014290;28;20092;-47
2021/06/24 07:25:13;;;;;;;1.95;0.85;;;20.40;60.90;;;;;;5014170;28;20021;-48
2021/06/24 07:27:39;;;;;;;1.00;0.80;;;20.30;60.70;;;;;;5013958;28;20033;-46
2021/06/24 07:30:06;;;;;;;1.33;0.65;;;20.30;61.50;;;;;;5014267;28;20022;-48
2021/06/24 07:32:32;;;;;;;3.35;1.20;;;20.30;60.80;;;;;;5013729;28;20026;-46
2021/06/24 07:34:58;;;;;;;1.85;0.93;;;20.10;61.10;;;;;;5013525;28;20036;-46
2021/06/24 07:37:23;;;;;;;2.33;0.90;;;20.10;61.30;;;;;;5013885;28;20022;-46
2021/06/24 07:39:50;;;;;;;1.52;0.65;;;20.60;61.60;;;;;;5013555;28;20041;-46
2021/06/24 07:42:16;;;;;;;2.13;0.82;;;20.40;61.30;;;;;;5013819;28;20055;-45
2021/06/24 07:44:42;;;;;;;2.83;0.77;;;20.20;61.10;;;;;;5013606;28;20056;-45
2021/06/24 07:47:07;;;;;;;1.00;0.77;;;20.70;61.60;;;;;;5013641;28;20021;-47
2021/06/24 07:49:33;;;;;;;2.47;0.70;;;20.30;61.20;;;;;;5013872;28;20029;-46
2021/06/24 07:51:59;;;;;;;3.95;0.70;;;20.10;60.80;;;;;;5013520;28;20029;-46
2021/06/24 07:54:24;;;;;;;1.63;0.75;;;20.40;61.00;;;;;;5012873;28;20022;-46
2021/06/24 07:56:50;;;;;;;0.95;0.70;;;20.70;61.20;;;;;;5013561;28;20072;-47
2021/06/24 07:59:16;;;;;;;1.80;1.10;;;20.40;61.00;;;;;;5013722;28;20034;-46
2021/06/24 08:01:42;;;;;;;1.25;0.88;;;20.30;60.90;;;;;;5013722;28;20031;-47
2021/06/24 08:04:09;;;;;;;1.60;0.70;;;20.40;61.00;;;;;;5013518;28;20026;-48
2021/06/24 08:06:35;;;;;;;2.63;1.33;;;20.40;60.80;;;;;;5013642;28;20374;-47
2021/06/24 08:09:01;;;;;;;1.10;0.55;;;20.40;60.80;;;;;;5012754;28;20101;-47
2021/06/24 08:11:27;;;;;;;1.52;0.85;;;20.20;60.70;;;;;;5013607;28;20627;-47
2021/06/24 08:13:52;;;;;;;5.50;0.98;;;20.50;60.80;;;;;;5013296;28;20021;-45
2021/06/24 08:16:18;;;;;;;1.63;1.02;;;20.40;60.70;;;;;;5013192;28;20030;-45
2021/06/24 08:18:44;;;;;;;1.90;0.90;;;20.50;60.60;;;;;;5013411;28;20032;-46
2021/06/24 08:21:10;;;;;;;7.20;0.88;;;20.50;60.50;;;;;;5013303;28;20377;-47
2021/06/24 08:23:38;;;;;;;1.92;0.90;;;20.50;60.50;;;;;;5013187;28;20062;-47
2021/06/24 08:26:04;;;;;;;1.55;0.93;;;20.50;60.40;;;;;;5013413;28;20366;-49
2021/06/24 08:28:30;;;;;;;1.77;1.00;;;20.60;60.40;;;;;;5013090;28;20026;-46
2021/06/24 08:30:59;;;;;;;0.90;0.75;;;20.90;60.40;;;;;;5013033;28;20480;-47
2021/06/24 08:33:25;;;;;;;2.40;0.70;;;20.30;60.00;;;;;;5013382;28;20033;-46
2021/06/24 08:35:51;;;;;;;2.33;0.82;;;20.80;60.40;;;;;;5013274;28;20401;-47
2021/06/24 08:38:17;;;;;;;3.15;1.00;;;20.60;60.00;;;;;;5013331;28;20032;-46
2021/06/24 08:40:43;;;;;;;3.35;0.82;;;20.60;59.90;;;;;;5013219;28;20014;-47
2021/06/24 08:43:10;;;;;;;3.08;0.93;;;20.30;59.80;;;;;;5013284;28;20045;-48
2021/06/24 08:45:38;;;;;;;1.52;0.80;;;20.60;59.90;;;;;;5012720;28;20038;-46
2021/06/24 08:48:07;;;;;;;1.65;0.73;;;20.90;60.10;;;;;;5012749;28;20037;-46
2021/06/24 08:50:32;;;;;;;3.25;1.15;;;20.60;59.90;;;;;;5012936;28;20045;-46
2021/06/24 08:52:58;;;;;;;1.10;0.98;;;20.60;59.80;;;;;;5013109;28;20038;-46
2021/06/24 08:55:35;;;;;;;0.82;0.82;;;21.00;60.00;;;;;;5012730;28;20496;-47
2021/06/24 08:58:01;;;;;;;1.58;0.93;;;20.60;59.80;;;;;;5012805;28;20168;-46
2021/06/24 09:00:27;;;;;;;2.17;1.10;;;20.70;81.30;;;;;;5013051;28;20421;-48
2021/06/24 09:02:54;;;;;;;1.45;0.90;;;20.60;59.80;;;;;;5012952;28;20022;-47
2021/06/24 09:05:22;;;;;;;2.65;1.10;;;20.60;60.10;;;;;;5012683;28;20030;-46
2021/06/24 09:07:53;;;;;;;1.95;0.90;;;20.60;59.90;;;;;;5012715;28;20069;-47
2021/06/24 09:10:20;;;;;;;2.03;0.90;;;20.60;59.80;;;;;;5012757;28;20057;-46
2021/06/24 09:12:55;;;;;;;1.42;0.68;;;20.60;59.90;;;;;;5012901;28;20065;-47
2021/06/24 09:15:25;;;;;;;1.90;0.95;;;20.60;59.90;;;;;;5013000;28;20185;-46
2021/06/24 09:17:51;;;;;;;1.70;1.00;;;20.60;59.90;;;;;;5012656;28;20022;-45
2021/06/24 09:20:22;;;;;;;0.88;0.85;;;20.60;60.00;;;;;;5015410;28;20397;-46
2021/06/24 09:23:17;;;;;;;1.38;0.90;;;20.60;60.20;;;;;;5016547;28;20109;-47
2021/06/24 09:26:04;;;;;;;3.17;0.82;;;20.60;60.00;;;;;;5016482;28;20026;-46
2021/06/24 09:28:56;;;;;;;1.48;1.10;;;20.60;60.10;;;;;;5016649;28;20057;-46
2021/06/24 09:31:34;;;;;;;1.50;0.90;;;20.60;59.90;;;;;;5012690;28;20038;-46
2021/06/24 09:34:08;;;;;;;1.75;0.98;;;20.60;59.80;;;;;;5016661;28;20033;-48
2021/06/24 09:36:35;;;;;;;1.00;1.00;;;20.50;59.70;;;;;;5016488;28;20025;-49
2021/06/24 09:39:03;;;;;;;1.30;0.95;;;20.60;59.70;;;;;;5016091;28;20034;-46
2021/06/24 09:41:28;;;;;;;3.40;1.20;;;20.60;59.50;;;;;;5016255;28;20021;-46
2021/06/24 09:43:54;;;;;;;0.98;0.45;;;20.60;59.70;;;;;;5015872;28;20068;-47
2021/06/24 09:46:23;;;;;;;1.25;0.90;;;20.60;59.60;;;;;;5016404;28;20021;-46
2021/06/24 09:48:52;;;;;;;2.17;1.08;;;20.70;59.70;;;;;;5016085;28;20084;-48
2021/06/24 09:51:26;;;;;;;1.33;1.00;;;20.60;59.60;;;;;;5014713;28;20384;-47
2021/06/24 09:53:57;;;;;;;1.35;0.80;;;20.80;59.70;;;;;;5016029;28;20018;-49
2021/06/24 09:56:50;;;;;;;1.88;0.90;;;20.70;59.60;;;;;;5015798;28;20053;-47
2021/06/24 09:59:18;;;;;;;1.35;0.82;;;20.70;59.60;;;;;;5015613;28;20069;-49
2021/06/24 10:01:48;;;;;;;2.72;0.98;;;20.60;59.30;;;;;;5016048;28;20026;-47
2021/06/24 10:04:29;;;;;;;1.92;1.00;;;20.50;59.20;;;;;;5015729;28;20118;-49
2021/06/24 10:06:56;;;;;;;4.20;0.98;;;20.80;59.30;;;;;;5015608;28;20509;-48
2021/06/24 10:09:24;;;;;;;2.58;1.33;;;20.80;59.60;;;;;;5015942;28;20664;-48
2021/06/24 10:11:51;;;;;;;4.03;1.42;;;20.80;59.60;;;;;;5015922;28;20022;-49
2021/06/24 10:14:18;;;;;;;3.13;1.00;;;20.80;59.70;;;;;;5015848;28;20076;-48
2021/06/24 10:16:48;;;;;;;6.88;1.40;;;20.60;59.90;;;;;;5015344;28;20036;-48
2021/06/24 10:19:15;;;;;;;;;;;20.80;60.50;;;;;;5015955;28;20044;-48
2021/06/24 10:21:42;;;;;;;6.22;1.73;;;20.80;60.40;;;;;;5015429;28;19909;-47
2021/06/24 10:24:11;;;;;;;4.22;1.33;;;20.90;60.50;;;;;;5015287;28;20026;-48
2021/06/24 10:26:41;;;;;;;4.57;1.38;;;20.90;60.60;;;;;;5015542;28;20057;-48
2021/06/24 10:29:17;;;;;;;8.98;1.52;;;20.90;60.50;;;;;;5014014;28;20080;-47
2021/06/24 10:31:44;;;;;;;6.50;1.30;;;20.90;60.60;;;;;;5014434;28;20029;-48
2021/06/24 10:34:14;;;;;;;4.53;1.38;;;20.90;60.50;;;;;;5015446;28;20022;-49
2021/06/24 10:36:40;;;;;;;3.50;1.50;;;21.20;60.80;;;;;;5015399;28;20025;-49
2021/06/24 10:39:07;;;;;;;6.88;1.45;;;20.90;60.70;;;;;;5015208;28;20061;-48
2021/06/24 10:42:08;;;;;;;2.75;1.38;;;20.90;60.80;;;;;;5015347;28;20049;-48
2021/06/24 10:44:42;;;;;;;3.75;1.50;;;20.90;60.60;;;;;;5014913;28;20050;-51
2021/06/24 10:47:08;;;;;;;7.65;2.15;;;20.90;61.40;;;;;;5013601;28;20049;-48
2021/06/24 10:49:34;;;;;;;7.15;1.60;;;20.90;62.50;;;;;;5014838;28;20038;-47
2021/06/24 10:52:29;;;;;;;6.40;1.65;;;20.60;62.60;;;;;;5015134;28;20072;-47
2021/06/24 10:54:58;;;;;;;10.60;2.00;;;20.90;65.80;;;;;;5013384;28;20025;-46
2021/06/24 10:57:31;;;;;;;12.82;2.45;;;20.80;66.50;;;;;;5014708;28;20076;-47
2021/06/24 11:00:35;;;;;;;3.97;2.17;;;20.90;66.40;;;;;;5014888;28;20058;-47
2021/06/24 11:03:03;;;;;;;5.20;2.00;;;20.90;65.00;;;;;;5014821;28;20054;-47
2021/06/24 11:05:40;;;;;;;4.70;1.83;;;20.70;64.00;;;;;;5014843;28;20049;-47
2021/06/24 11:08:14;;;;;;;3.90;1.52;;;20.90;63.60;;;;;;5014567;28;20040;-47
2021/06/24 11:10:56;;;;;;;4.43;2.08;;;20.90;63.20;;;;;;5014554;28;20108;-47
2021/06/24 11:16:07;;;;;;;4.45;1.70;;;21.20;62.60;;;;;;5014009;28;20034;-48
2021/06/24 11:18:33;;;;;;;;;;;21.00;62.20;;;;;;5013728;28;20040;-49
2021/06/24 11:21:00;;;;;;;9.13;2.05;;;21.30;62.30;;;;;;5014470;28;19909;-47
2021/06/24 11:23:28;;;;;;;6.35;2.38;;;20.90;62.00;;;;;;5014445;28;20030;-46
2021/06/24 11:26:11;;;;;;;7.00;2.15;;;21.00;62.00;;;;;;5014440;28;20080;-47
2021/06/24 11:28:57;;;;;;;4.45;1.65;;;21.50;62.10;;;;;;5014492;28;20440;-47
2021/06/24 11:31:49;;;;;;;7.30;2.30;;;21.00;61.70;;;;;;5014109;28;20026;-48
2021/06/24 11:34:33;;;;;;;6.18;2.53;;;21.30;62.00;;;;;;5014259;28;20049;-47
2021/06/24 11:37:05;;;;;;;4.43;1.85;;;21.00;61.40;;;;;;5014254;28;20184;-46
2021/06/24 11:39:48;;;;;;;4.57;1.80;;;20.80;61.40;;;;;;5014200;28;20034;-47
2021/06/24 11:42:16;;;;;;;3.08;1.80;;;21.10;61.30;;;;;;5013721;28;20033;-47
2021/06/24 11:44:46;;;;;;;4.63;1.85;;;21.10;61.30;;;;;;5013609;28;20053;-46
2021/06/24 11:47:17;;;;;;;3.83;1.50;;;21.10;61.20;;;;;;5014136;28;20048;-47
2021/06/24 12:03:21;;;;;;;2.92;1.48;;;20.90;60.60;;;;;;5013931;28;20092;-49
2021/06/24 12:05:54;;;;;;;2.38;1.60;;;21.30;60.70;;;;;;5013722;28;20378;-47
2021/06/24 12:08:21;;;;;;;4.97;1.50;;;20.90;60.50;;;;;;5013715;28;20026;-48
2021/06/24 12:10:47;;;;;;;3.15;1.75;;;21.50;60.70;;;;;;5012124;28;20326;-47
2021/06/24 12:13:27;;;;;;;3.08;1.50;;;21.20;60.40;;;;;;5013378;28;20284;-47
2021/06/24 12:15:56;;;;;;;;;;;21.20;60.40;;;;;;4996293;28;20030;-49
2021/06/24 12:18:36;;;;;;;5.70;1.45;;;20.90;60.20;;;;;;5013417;28;20020;-48
2021/06/24 12:21:10;;;;;;;3.20;1.27;;;21.20;60.30;;;;;;5013265;28;20069;-47
2021/06/24 12:23:44;;;;;;;3.17;1.48;;;21.20;60.20;;;;;;5013161;28;20480;-46
2021/06/24 12:26:10;;;;;;;2.03;1.30;;;21.20;60.10;;;;;;5013051;28;20441;-46
2021/06/24 12:28:37;;;;;;;2.88;1.42;;;21.40;60.20;;;;;;5013349;28;20030;-47
2021/06/24 12:31:06;;;;;;;5.78;1.55;;;21.00;59.90;;;;;;5013126;28;20354;-47
2021/06/24 12:33:32;;;;;;;2.28;1.48;;;20.90;59.80;;;;;;5013344;28;20018;-46
2021/06/24 12:35:59;;;;;;;1.50;1.38;;;21.20;59.80;;;;;;5012985;28;20022;-47
2021/06/24 12:38:27;;;;;;;3.13;1.55;;;21.20;59.80;;;;;;5013180;28;20044;-47
2021/06/24 12:40:56;;;;;;;3.42;1.70;;;21.20;59.80;;;;;;5012945;28;20496;-48
2021/06/24 12:43:25;;;;;;;1.67;1.05;;;21.30;59.80;;;;;;5013187;28;20034;-47
2021/06/24 12:45:53;;;;;;;3.72;1.55;;;21.50;59.90;;;;;;5012853;28;20026;-47
2021/06/24 12:48:30;;;;;;;2.85;1.52;;;21.30;60.40;;;;;;5012883;28;20469;-47
2021/06/24 12:50:59;;;;;;;2.55;1.63;;;21.30;59.80;;;;;;5013196;28;20022;-48
2021/06/24 12:53:31;;;;;;;2.05;1.45;;;21.10;59.70;;;;;;5012842;28;20036;-47
2021/06/24 12:55:57;;;;;;;2.13;1.23;;;21.00;59.60;;;;;;5012762;28;20026;-48
2021/06/24 12:58:26;;;;;;;3.08;1.50;;;21.70;60.00;;;;;;5013002;28;20038;-47
2021/06/24 13:01:08;;;;;;;2.90;1.20;;;21.30;59.80;;;;;;5012764;28;20039;-47
2021/06/24 13:03:46;;;;;;;3.08;1.52;;;21.50;60.70;;;;;;5012233;28;20165;-48
2021/06/24 13:06:25;;;;;;;2.58;1.20;;;21.40;60.20;;;;;;5012714;28;20018;-47
2021/06/24 13:08:51;;;;;;;2.45;1.60;;;21.40;60.20;;;;;;5012801;28;20108;-47